North Bay Shore, New York
Current Conditions -  °F | °C
As of 5:05 AM on Tuesday 27 Jan 2015 (Local Time) from KFRG Reporting Station
Haze Haze  
Wind Chill:   Ceiling: 900
Heat Index: 22°   Visibility: 0.75mi
Dew Point: 18°   Wind: 20mph
Humidity: 85%   Direction: 360°N
Pressure: 29.59"   Gusts: 30mph
Location:  40.7379°N, 73.2632°W
Report Text: KFRG 271005Z AUTO 36017G26KT 3/4SM BR VV009 M06/M08 A2959 RMK AO2 PK WND 36026/1002 T10561078 PWINO FZRANO $
Loading
Personal Weather Stations






























Interactive Weather Map New forecast layout! Learn more

10-Day Weather Forecast

Advertisements
Track Severe Weather on mobile